QFA735 YSSY-YPAD
Flight info
| Callsign | QFA735 |
|---|---|
| Flight time | 1h 43m |
| Altitude | 34000 |
| Route | GROOK1/16R KADOM H44 MAXEM Q60 KAKLU |
| Aircraft | B738/M-SDE2E3FGHIRWXY/LB1 |
Departure
| Time | 2026-04-25 04:37 |
|---|---|
| Airport | Sydney Kingsford Smith International Airport (YSSY) |
Arrival
| Time | 2026-04-25 06:20 |
|---|---|
| Airport | Adelaide International Airport (YPAD) |
| Time | Latitude | Longitude | Altitude | Speed | Heading |
|---|---|---|---|---|---|
| 2026-04-25 04:12 | -33.93127 | 151.17757 | 28 ft | 0 kts | 192° |
| 2026-04-25 04:27 | -33.93119 | 151.17760 | 27 ft | 2 kts | 192° |
| 2026-04-25 04:28 | -33.93105 | 151.17764 | 27 ft | 2 kts | 206° |
| 2026-04-25 04:28 | -33.93092 | 151.17773 | 27 ft | 2 kts | 219° |
| 2026-04-25 04:28 | -33.93081 | 151.17786 | 27 ft | 2 kts | 233° |
| 2026-04-25 04:28 | -33.93074 | 151.17801 | 27 ft | 2 kts | 247° |
| 2026-04-25 04:29 | -33.93069 | 151.17819 | 27 ft | 2 kts | 261° |
| 2026-04-25 04:29 | -33.93068 | 151.17836 | 27 ft | 2 kts | 275° |
| 2026-04-25 04:29 | -33.93069 | 151.17845 | 27 ft | 1 kts | 282° |
| 2026-04-25 04:29 | -33.93070 | 151.17850 | 27 ft | 0 kts | 281° |
| 2026-04-25 04:32 | -33.93070 | 151.17848 | 27 ft | 0 kts | 281° |
| 2026-04-25 04:32 | -33.93069 | 151.17842 | 27 ft | 1 kts | 281° |
| 2026-04-25 04:32 | -33.93066 | 151.17827 | 27 ft | 2 kts | 281° |
| 2026-04-25 04:33 | -33.93059 | 151.17787 | 27 ft | 7 kts | 281° |
| 2026-04-25 04:33 | -33.93043 | 151.17728 | 27 ft | 6 kts | 295° |
| 2026-04-25 04:33 | -33.93024 | 151.17680 | 27 ft | 5 kts | 294° |
| 2026-04-25 04:33 | -33.93016 | 151.17641 | 27 ft | 4 kts | 281° |
| 2026-04-25 04:34 | -33.93010 | 151.17606 | 27 ft | 4 kts | 281° |
| 2026-04-25 04:34 | -33.93004 | 151.17567 | 27 ft | 5 kts | 281° |
| 2026-04-25 04:34 | -33.92995 | 151.17519 | 27 ft | 6 kts | 282° |
| 2026-04-25 04:34 | -33.92984 | 151.17461 | 27 ft | 7 kts | 283° |
| 2026-04-25 04:35 | -33.92975 | 151.17401 | 27 ft | 6 kts | 281° |
| 2026-04-25 04:35 | -33.92967 | 151.17352 | 28 ft | 5 kts | 281° |
| 2026-04-25 04:35 | -33.92962 | 151.17319 | 27 ft | 0 kts | 281° |
| 2026-04-25 04:35 | -33.92960 | 151.17308 | 27 ft | 3 kts | 281° |
| 2026-04-25 04:36 | -33.92955 | 151.17250 | 27 ft | 10 kts | 261° |
| 2026-04-25 04:36 | -33.93047 | 151.17188 | 27 ft | 24 kts | 169° |
| 2026-04-25 04:36 | -33.93425 | 151.17287 | 28 ft | 89 kts | 168° |
| 2026-04-25 04:36 | -33.94237 | 151.17499 | 28 ft | 147 kts | 167° |
| 2026-04-25 04:37 | -33.95365 | 151.17801 | 220 ft | 178 kts | 165° |
| 2026-04-25 04:37 | -33.96629 | 151.18126 | 645 ft | 197 kts | 167° |
| 2026-04-25 04:37 | -33.98016 | 151.18262 | 1398 ft | 202 kts | 184° |
| 2026-04-25 04:37 | -33.99454 | 151.17976 | 1903 ft | 214 kts | 190° |
| 2026-04-25 04:38 | -34.00964 | 151.17677 | 2350 ft | 227 kts | 187° |
| 2026-04-25 04:38 | -34.02577 | 151.17514 | 2761 ft | 241 kts | 178° |
| 2026-04-25 04:38 | -34.04263 | 151.17859 | 3219 ft | 253 kts | 162° |
| 2026-04-25 04:38 | -34.05984 | 151.18506 | 3727 ft | 265 kts | 161° |
| 2026-04-25 04:39 | -34.07790 | 151.19185 | 4314 ft | 274 kts | 162° |
| 2026-04-25 04:39 | -34.09615 | 151.19820 | 5106 ft | 273 kts | 163° |
| 2026-04-25 04:39 | -34.11429 | 151.20425 | 5859 ft | 274 kts | 164° |
| 2026-04-25 04:39 | -34.13268 | 151.21033 | 6578 ft | 276 kts | 164° |
| 2026-04-25 04:40 | -34.15116 | 151.21643 | 7299 ft | 279 kts | 164° |
| 2026-04-25 04:40 | -34.17018 | 151.22238 | 8036 ft | 281 kts | 168° |
| 2026-04-25 04:40 | -34.18946 | 151.22404 | 8762 ft | 286 kts | 186° |
| 2026-04-25 04:40 | -34.20832 | 151.21645 | 9502 ft | 290 kts | 210° |
| 2026-04-25 04:41 | -34.22416 | 151.20084 | 10224 ft | 296 kts | 225° |
| 2026-04-25 04:41 | -34.23783 | 151.18222 | 10805 ft | 305 kts | 231° |
| 2026-04-25 04:41 | -34.24927 | 151.15979 | 11217 ft | 322 kts | 248° |
| 2026-04-25 04:41 | -34.25327 | 151.13318 | 11898 ft | 327 kts | 271° |
| 2026-04-25 04:42 | -34.25003 | 151.10628 | 12663 ft | 329 kts | 283° |
| 2026-04-25 04:42 | -34.24237 | 151.08023 | 13341 ft | 334 kts | 300° |
| 2026-04-25 04:42 | -34.22752 | 151.05890 | 14069 ft | 337 kts | 321° |
| 2026-04-25 04:42 | -34.20640 | 151.04520 | 14470 ft | 351 kts | 342° |
| 2026-04-25 04:43 | -34.18248 | 151.03638 | 14826 ft | 367 kts | 340° |
| 2026-04-25 04:43 | -34.16014 | 151.02006 | 15163 ft | 384 kts | 318° |
| 2026-04-25 04:43 | -34.14245 | 150.99609 | 15859 ft | 389 kts | 308° |
| 2026-04-25 04:43 | -34.12656 | 150.96944 | 16656 ft | 392 kts | 304° |
| 2026-04-25 04:44 | -34.11107 | 150.94200 | 17349 ft | 397 kts | 304° |
| 2026-04-25 04:44 | -34.09553 | 150.91486 | 18024 ft | 401 kts | 305° |
| 2026-04-25 04:44 | -34.07908 | 150.88702 | 18674 ft | 406 kts | 306° |
| 2026-04-25 04:44 | -34.06243 | 150.85963 | 19304 ft | 411 kts | 306° |
| 2026-04-25 04:45 | -34.04521 | 150.83177 | 19928 ft | 416 kts | 307° |
| 2026-04-25 04:45 | -34.02783 | 150.80391 | 20568 ft | 420 kts | 307° |
| 2026-04-25 04:45 | -34.01018 | 150.77574 | 21172 ft | 424 kts | 307° |
| 2026-04-25 04:45 | -33.99224 | 150.74715 | 21743 ft | 429 kts | 307° |
| 2026-04-25 04:46 | -33.97424 | 150.71848 | 22320 ft | 433 kts | 307° |
| 2026-04-25 04:46 | -33.95598 | 150.68939 | 22892 ft | 437 kts | 307° |
| 2026-04-25 04:46 | -33.93881 | 150.65886 | 23448 ft | 441 kts | 299° |
| 2026-04-25 04:46 | -33.92599 | 150.62578 | 24048 ft | 443 kts | 289° |
| 2026-04-25 04:47 | -33.91782 | 150.58993 | 24621 ft | 445 kts | 279° |
| 2026-04-25 04:47 | -33.91475 | 150.55273 | 25131 ft | 447 kts | 269° |
| 2026-04-25 04:47 | -33.91570 | 150.51581 | 25645 ft | 449 kts | 264° |
| 2026-04-25 04:47 | -33.91806 | 150.47819 | 26177 ft | 451 kts | 263° |
| 2026-04-25 04:48 | -33.92023 | 150.44078 | 26713 ft | 453 kts | 264° |
| 2026-04-25 04:48 | -33.92167 | 150.40228 | 27176 ft | 458 kts | 266° |
| 2026-04-25 04:48 | -33.92220 | 150.36388 | 27660 ft | 461 kts | 268° |
| 2026-04-25 04:48 | -33.92196 | 150.32547 | 28157 ft | 463 kts | 269° |
| 2026-04-25 04:49 | -33.92116 | 150.28653 | 28607 ft | 466 kts | 270° |
| 2026-04-25 04:49 | -33.91999 | 150.24770 | 29057 ft | 469 kts | 270° |
| 2026-04-25 04:49 | -33.91859 | 150.20868 | 29510 ft | 472 kts | 271° |
| 2026-04-25 04:49 | -33.91703 | 150.16930 | 30048 ft | 472 kts | 271° |
| 2026-04-25 04:50 | -33.91540 | 150.13014 | 30839 ft | 465 kts | 271° |
| 2026-04-25 04:50 | -33.91375 | 150.09135 | 31449 ft | 463 kts | 271° |
| 2026-04-25 04:50 | -33.91208 | 150.05263 | 32003 ft | 462 kts | 271° |
| 2026-04-25 04:50 | -33.91042 | 150.01424 | 32584 ft | 459 kts | 270° |
| 2026-04-25 04:51 | -33.90878 | 149.97652 | 33127 ft | 457 kts | 270° |
| 2026-04-25 04:51 | -33.90712 | 149.93829 | 33617 ft | 456 kts | 270° |
| 2026-04-25 04:51 | -33.90546 | 149.90037 | 34172 ft | 454 kts | 270° |
| 2026-04-25 04:51 | -33.90378 | 149.86212 | 34393 ft | 457 kts | 270° |
| 2026-04-25 04:52 | -33.90213 | 149.82440 | 34401 ft | 456 kts | 270° |
| 2026-04-25 04:52 | -33.89874 | 149.74840 | 34396 ft | 451 kts | 270° |
| 2026-04-25 04:53 | -33.89535 | 149.67319 | 34388 ft | 452 kts | 270° |
| 2026-04-25 04:53 | -33.89192 | 149.59811 | 34388 ft | 451 kts | 270° |
| 2026-04-25 04:54 | -33.88841 | 149.52234 | 34380 ft | 451 kts | 270° |
| 2026-04-25 04:54 | -33.88489 | 149.44720 | 34380 ft | 451 kts | 270° |
| 2026-04-25 04:55 | -33.88131 | 149.37181 | 34371 ft | 450 kts | 270° |
| 2026-04-25 04:55 | -33.87769 | 149.29680 | 34372 ft | 451 kts | 271° |
| 2026-04-25 04:56 | -33.87402 | 149.22142 | 34367 ft | 450 kts | 271° |
| 2026-04-25 04:56 | -33.87031 | 149.14627 | 34363 ft | 451 kts | 271° |
| 2026-04-25 04:57 | -33.86653 | 149.07091 | 34354 ft | 450 kts | 271° |
| 2026-04-25 04:57 | -33.86273 | 148.99587 | 34347 ft | 450 kts | 271° |
| 2026-04-25 04:58 | -33.85891 | 148.92139 | 34342 ft | 450 kts | 271° |
| 2026-04-25 04:58 | -33.85503 | 148.84653 | 34342 ft | 449 kts | 271° |
| 2026-04-25 04:59 | -33.85110 | 148.77156 | 34341 ft | 449 kts | 271° |
| 2026-04-25 04:59 | -33.84743 | 148.69685 | 34338 ft | 448 kts | 269° |
| 2026-04-25 05:00 | -33.85000 | 148.62280 | 34338 ft | 444 kts | 260° |
| 2026-04-25 05:00 | -33.86034 | 148.54973 | 34336 ft | 442 kts | 256° |
| 2026-04-25 05:01 | -33.87294 | 148.47749 | 34335 ft | 442 kts | 255° |
| 2026-04-25 05:01 | -33.88560 | 148.40541 | 34334 ft | 441 kts | 256° |
| 2026-04-25 05:02 | -33.89795 | 148.33292 | 34337 ft | 441 kts | 256° |
| 2026-04-25 05:02 | -33.91000 | 148.26065 | 34335 ft | 441 kts | 257° |
| 2026-04-25 05:03 | -33.92189 | 148.18845 | 34336 ft | 440 kts | 257° |
| 2026-04-25 05:03 | -33.93368 | 148.11623 | 34334 ft | 440 kts | 257° |
| 2026-04-25 05:04 | -33.94542 | 148.04404 | 34334 ft | 440 kts | 257° |
| 2026-04-25 05:04 | -33.95703 | 147.97237 | 34333 ft | 439 kts | 257° |
| 2026-04-25 05:05 | -33.96870 | 147.90001 | 34327 ft | 439 kts | 257° |
| 2026-04-25 05:05 | -33.98027 | 147.82800 | 34324 ft | 439 kts | 257° |
| 2026-04-25 05:06 | -33.99180 | 147.75594 | 34323 ft | 439 kts | 257° |
| 2026-04-25 05:06 | -34.00333 | 147.68364 | 34324 ft | 439 kts | 257° |
| 2026-04-25 05:07 | -34.01477 | 147.61163 | 34324 ft | 439 kts | 257° |
| 2026-04-25 05:07 | -34.02610 | 147.53996 | 34319 ft | 438 kts | 257° |
| 2026-04-25 05:08 | -34.03749 | 147.46770 | 34321 ft | 439 kts | 257° |
| 2026-04-25 05:08 | -34.04877 | 147.39583 | 34324 ft | 439 kts | 257° |
| 2026-04-25 05:09 | -34.06009 | 147.32338 | 34324 ft | 439 kts | 258° |
| 2026-04-25 05:09 | -34.07133 | 147.25120 | 34328 ft | 439 kts | 258° |
| 2026-04-25 05:10 | -34.08253 | 147.17896 | 34330 ft | 439 kts | 258° |
| 2026-04-25 05:10 | -34.09364 | 147.10696 | 34322 ft | 438 kts | 258° |
| 2026-04-25 05:11 | -34.10479 | 147.03450 | 34329 ft | 439 kts | 258° |
| 2026-04-25 05:11 | -34.11586 | 146.96228 | 34329 ft | 439 kts | 258° |
| 2026-04-25 05:12 | -34.13231 | 146.85432 | 34329 ft | 439 kts | 258° |
| 2026-04-25 05:12 | -34.14333 | 146.78162 | 34328 ft | 438 kts | 258° |
| 2026-04-25 05:13 | -34.15418 | 146.70976 | 34325 ft | 439 kts | 258° |
| 2026-04-25 05:13 | -34.16509 | 146.63722 | 34323 ft | 439 kts | 258° |
| 2026-04-25 05:14 | -34.17588 | 146.56514 | 34320 ft | 439 kts | 258° |
| 2026-04-25 05:15 | -34.19212 | 146.45615 | 34318 ft | 438 kts | 258° |
| 2026-04-25 05:15 | -34.20284 | 146.38382 | 34318 ft | 439 kts | 258° |
| 2026-04-25 05:16 | -34.21354 | 146.31134 | 34317 ft | 439 kts | 259° |
| 2026-04-25 05:16 | -34.22420 | 146.23872 | 34317 ft | 439 kts | 259° |
| 2026-04-25 05:17 | -34.23481 | 146.16621 | 34316 ft | 439 kts | 259° |
| 2026-04-25 05:17 | -34.24536 | 146.09386 | 34312 ft | 439 kts | 259° |
| 2026-04-25 05:18 | -34.25556 | 146.02109 | 34313 ft | 439 kts | 260° |
| 2026-04-25 05:18 | -34.26461 | 145.94804 | 34311 ft | 439 kts | 261° |
| 2026-04-25 05:19 | -34.27339 | 145.87482 | 34311 ft | 438 kts | 261° |
| 2026-04-25 05:19 | -34.28214 | 145.80208 | 34310 ft | 438 kts | 261° |
| 2026-04-25 05:20 | -34.29092 | 145.72954 | 34310 ft | 438 kts | 261° |
| 2026-04-25 05:20 | -34.29977 | 145.65649 | 34310 ft | 438 kts | 261° |
| 2026-04-25 05:21 | -34.30854 | 145.58382 | 34310 ft | 437 kts | 261° |
| 2026-04-25 05:21 | -34.31729 | 145.51100 | 34310 ft | 436 kts | 261° |
| 2026-04-25 05:22 | -34.32596 | 145.43855 | 34309 ft | 437 kts | 261° |
| 2026-04-25 05:22 | -34.33460 | 145.36606 | 34309 ft | 435 kts | 261° |
| 2026-04-25 05:23 | -34.34315 | 145.29385 | 34308 ft | 436 kts | 261° |
| 2026-04-25 05:23 | -34.35167 | 145.22159 | 34307 ft | 435 kts | 261° |
| 2026-04-25 05:24 | -34.36015 | 145.14920 | 34308 ft | 436 kts | 261° |
| 2026-04-25 05:24 | -34.36860 | 145.07681 | 34307 ft | 435 kts | 262° |
| 2026-04-25 05:25 | -34.37701 | 145.00424 | 34307 ft | 434 kts | 262° |
| 2026-04-25 05:25 | -34.38537 | 144.93184 | 34305 ft | 434 kts | 262° |
| 2026-04-25 05:26 | -34.39365 | 144.85963 | 34303 ft | 434 kts | 262° |
| 2026-04-25 05:26 | -34.40186 | 144.78769 | 34303 ft | 434 kts | 262° |
| 2026-04-25 05:27 | -34.41007 | 144.71536 | 34302 ft | 433 kts | 262° |
| 2026-04-25 05:27 | -34.41819 | 144.64346 | 34297 ft | 433 kts | 262° |
| 2026-04-25 05:28 | -34.42627 | 144.57156 | 34298 ft | 432 kts | 262° |
| 2026-04-25 05:28 | -34.43435 | 144.49919 | 34295 ft | 433 kts | 262° |
| 2026-04-25 05:29 | -34.44235 | 144.42725 | 34294 ft | 432 kts | 262° |
| 2026-04-25 05:29 | -34.45031 | 144.35525 | 34291 ft | 431 kts | 262° |
| 2026-04-25 05:30 | -34.45820 | 144.28343 | 34290 ft | 432 kts | 262° |
| 2026-04-25 05:30 | -34.46607 | 144.21141 | 34290 ft | 432 kts | 262° |
| 2026-04-25 05:31 | -34.47390 | 144.13933 | 34288 ft | 431 kts | 263° |
| 2026-04-25 05:31 | -34.48168 | 144.06738 | 34288 ft | 432 kts | 263° |
| 2026-04-25 05:32 | -34.48939 | 143.99565 | 34285 ft | 430 kts | 263° |
| 2026-04-25 05:32 | -34.49707 | 143.92368 | 34282 ft | 431 kts | 263° |
| 2026-04-25 05:33 | -34.50469 | 143.85202 | 34283 ft | 430 kts | 263° |
| 2026-04-25 05:33 | -34.51226 | 143.78038 | 34276 ft | 430 kts | 263° |
| 2026-04-25 05:34 | -34.51982 | 143.70845 | 34276 ft | 431 kts | 263° |
| 2026-04-25 05:34 | -34.52734 | 143.63647 | 34272 ft | 429 kts | 263° |
| 2026-04-25 05:35 | -34.53479 | 143.56470 | 34273 ft | 429 kts | 263° |
| 2026-04-25 05:35 | -34.54219 | 143.49307 | 34270 ft | 429 kts | 263° |
| 2026-04-25 05:36 | -34.54952 | 143.42157 | 34265 ft | 428 kts | 263° |
| 2026-04-25 05:36 | -34.55684 | 143.34993 | 34266 ft | 429 kts | 263° |
| 2026-04-25 05:37 | -34.56413 | 143.27809 | 34261 ft | 428 kts | 264° |
| 2026-04-25 05:37 | -34.57137 | 143.20631 | 34261 ft | 430 kts | 264° |
| 2026-04-25 05:38 | -34.57854 | 143.13470 | 34261 ft | 428 kts | 263° |
| 2026-04-25 05:38 | -34.58568 | 143.06305 | 34255 ft | 428 kts | 264° |
| 2026-04-25 05:39 | -34.59276 | 142.99165 | 34252 ft | 427 kts | 264° |
| 2026-04-25 05:39 | -34.59980 | 142.92017 | 34250 ft | 428 kts | 264° |
| 2026-04-25 05:40 | -34.60682 | 142.84848 | 34251 ft | 427 kts | 264° |
| 2026-04-25 05:40 | -34.61377 | 142.77701 | 34248 ft | 427 kts | 264° |
| 2026-04-25 05:41 | -34.62063 | 142.70595 | 34249 ft | 425 kts | 264° |
| 2026-04-25 05:41 | -34.62745 | 142.63492 | 34246 ft | 425 kts | 264° |
| 2026-04-25 05:42 | -34.63427 | 142.56351 | 34245 ft | 425 kts | 264° |
| 2026-04-25 05:42 | -34.63972 | 142.49225 | 34245 ft | 424 kts | 266° |
| 2026-04-25 05:43 | -34.64349 | 142.42131 | 34246 ft | 424 kts | 267° |
| 2026-04-25 05:43 | -34.64714 | 142.34981 | 34242 ft | 423 kts | 267° |
| 2026-04-25 05:44 | -34.65090 | 142.27873 | 34243 ft | 423 kts | 267° |
| 2026-04-25 05:44 | -34.65473 | 142.20798 | 34244 ft | 422 kts | 267° |
| 2026-04-25 05:45 | -34.65858 | 142.13722 | 34244 ft | 420 kts | 267° |
| 2026-04-25 05:45 | -34.66241 | 142.06653 | 34245 ft | 421 kts | 267° |
| 2026-04-25 05:46 | -34.66620 | 141.99573 | 34248 ft | 421 kts | 267° |
| 2026-04-25 05:46 | -34.66994 | 141.92491 | 34242 ft | 420 kts | 267° |
| 2026-04-25 05:47 | -34.67363 | 141.85423 | 34241 ft | 420 kts | 267° |
| 2026-04-25 05:47 | -34.67729 | 141.78387 | 34236 ft | 419 kts | 267° |
| 2026-04-25 05:48 | -34.68090 | 141.71370 | 34240 ft | 418 kts | 267° |
| 2026-04-25 05:48 | -34.68449 | 141.64311 | 34236 ft | 419 kts | 267° |
| 2026-04-25 05:49 | -34.68802 | 141.57277 | 34229 ft | 417 kts | 267° |
| 2026-04-25 05:49 | -34.69150 | 141.50256 | 34234 ft | 417 kts | 267° |
| 2026-04-25 05:50 | -34.69494 | 141.43259 | 34226 ft | 417 kts | 267° |
| 2026-04-25 05:50 | -34.69835 | 141.36249 | 34227 ft | 416 kts | 267° |
| 2026-04-25 05:51 | -34.70167 | 141.29295 | 34218 ft | 415 kts | 268° |
| 2026-04-25 05:51 | -34.70499 | 141.22275 | 34216 ft | 414 kts | 268° |
| 2026-04-25 05:52 | -34.70824 | 141.15309 | 34218 ft | 414 kts | 268° |
| 2026-04-25 05:52 | -34.71143 | 141.08371 | 34216 ft | 414 kts | 268° |
| 2026-04-25 05:53 | -34.71458 | 141.01422 | 34210 ft | 412 kts | 268° |
| 2026-04-25 05:53 | -34.71773 | 140.94459 | 34212 ft | 413 kts | 268° |
| 2026-04-25 05:54 | -34.72083 | 140.87494 | 34209 ft | 411 kts | 268° |
| 2026-04-25 05:54 | -34.72537 | 140.77113 | 34205 ft | 411 kts | 268° |
| 2026-04-25 05:55 | -34.72837 | 140.70206 | 34200 ft | 411 kts | 268° |
| 2026-04-25 05:55 | -34.73133 | 140.63260 | 34197 ft | 411 kts | 268° |
| 2026-04-25 05:56 | -34.73421 | 140.56348 | 34199 ft | 410 kts | 268° |
| 2026-04-25 05:56 | -34.73706 | 140.49423 | 34195 ft | 410 kts | 268° |
| 2026-04-25 05:57 | -34.73988 | 140.42503 | 34195 ft | 410 kts | 268° |
| 2026-04-25 05:57 | -34.74265 | 140.35597 | 34191 ft | 409 kts | 268° |
| 2026-04-25 05:58 | -34.74538 | 140.28682 | 34189 ft | 408 kts | 268° |
| 2026-04-25 05:58 | -34.74804 | 140.21835 | 34189 ft | 408 kts | 268° |
| 2026-04-25 05:59 | -34.75066 | 140.15030 | 33729 ft | 399 kts | 268° |
| 2026-04-25 05:59 | -34.75194 | 140.11673 | 33284 ft | 394 kts | 268° |
| 2026-04-25 05:59 | -34.75320 | 140.08351 | 32723 ft | 393 kts | 268° |
| 2026-04-25 06:00 | -34.75429 | 140.05411 | 32141 ft | 393 kts | 268° |
| 2026-04-25 06:00 | -34.75483 | 140.03839 | 32064 ft | 398 kts | 264° |
| 2026-04-25 06:00 | -34.75600 | 140.00494 | 31254 ft | 406 kts | 265° |
| 2026-04-25 06:00 | -34.75727 | 139.97055 | 30608 ft | 408 kts | 265° |
| 2026-04-25 06:01 | -34.75857 | 139.93587 | 30057 ft | 417 kts | 265° |
| 2026-04-25 06:01 | -34.75995 | 139.89972 | 29431 ft | 442 kts | 265° |
| 2026-04-25 06:01 | -34.76137 | 139.86215 | 28725 ft | 448 kts | 266° |
| 2026-04-25 06:01 | -34.76274 | 139.82455 | 28043 ft | 444 kts | 267° |
| 2026-04-25 06:02 | -34.76406 | 139.78737 | 27344 ft | 438 kts | 268° |
| 2026-04-25 06:02 | -34.76533 | 139.75079 | 26679 ft | 429 kts | 269° |
| 2026-04-25 06:02 | -34.76656 | 139.71526 | 26098 ft | 420 kts | 269° |
| 2026-04-25 06:02 | -34.76776 | 139.68002 | 25498 ft | 414 kts | 269° |
| 2026-04-25 06:03 | -34.76893 | 139.64522 | 24887 ft | 409 kts | 269° |
| 2026-04-25 06:03 | -34.77007 | 139.61099 | 24266 ft | 405 kts | 269° |
| 2026-04-25 06:03 | -34.77117 | 139.57716 | 23675 ft | 399 kts | 269° |
| 2026-04-25 06:03 | -34.77227 | 139.54366 | 23072 ft | 395 kts | 269° |
| 2026-04-25 06:04 | -34.77334 | 139.51082 | 22495 ft | 390 kts | 270° |
| 2026-04-25 06:04 | -34.77439 | 139.47797 | 21903 ft | 387 kts | 270° |
| 2026-04-25 06:04 | -34.77594 | 139.44540 | 21298 ft | 384 kts | 268° |
| 2026-04-25 06:04 | -34.77970 | 139.41345 | 20721 ft | 383 kts | 260° |
| 2026-04-25 06:05 | -34.78736 | 139.38261 | 20148 ft | 383 kts | 253° |
| 2026-04-25 06:05 | -34.79740 | 139.35304 | 19566 ft | 382 kts | 250° |
| 2026-04-25 06:05 | -34.80853 | 139.32388 | 18985 ft | 380 kts | 249° |
| 2026-04-25 06:05 | -34.82008 | 139.29480 | 18382 ft | 378 kts | 249° |
| 2026-04-25 06:06 | -34.83156 | 139.26599 | 17802 ft | 375 kts | 249° |
| 2026-04-25 06:06 | -34.84275 | 139.23758 | 17233 ft | 373 kts | 249° |
| 2026-04-25 06:06 | -34.85369 | 139.20938 | 16649 ft | 371 kts | 250° |
| 2026-04-25 06:06 | -34.86459 | 139.18094 | 16071 ft | 369 kts | 250° |
| 2026-04-25 06:07 | -34.87521 | 139.15294 | 15500 ft | 367 kts | 250° |
| 2026-04-25 06:07 | -34.88581 | 139.12485 | 14927 ft | 365 kts | 250° |
| 2026-04-25 06:07 | -34.89643 | 139.09666 | 14358 ft | 363 kts | 250° |
| 2026-04-25 06:07 | -34.90686 | 139.06897 | 13791 ft | 361 kts | 249° |
| 2026-04-25 06:08 | -34.91734 | 139.04111 | 13215 ft | 360 kts | 248° |
| 2026-04-25 06:08 | -34.92779 | 139.01332 | 12634 ft | 359 kts | 249° |
| 2026-04-25 06:08 | -34.93803 | 138.98610 | 12084 ft | 357 kts | 249° |
| 2026-04-25 06:08 | -34.94840 | 138.95850 | 11486 ft | 356 kts | 249° |
| 2026-04-25 06:09 | -34.95878 | 138.93086 | 10921 ft | 354 kts | 249° |
| 2026-04-25 06:09 | -34.96892 | 138.90385 | 10442 ft | 350 kts | 249° |
| 2026-04-25 06:09 | -34.97895 | 138.87723 | 10258 ft | 331 kts | 249° |
| 2026-04-25 06:09 | -34.98825 | 138.85268 | 10163 ft | 309 kts | 250° |
| 2026-04-25 06:10 | -34.99702 | 138.82947 | 9982 ft | 294 kts | 250° |
| 2026-04-25 06:10 | -35.00533 | 138.80718 | 9599 ft | 292 kts | 250° |
| 2026-04-25 06:10 | -35.01374 | 138.78447 | 9190 ft | 291 kts | 250° |
| 2026-04-25 06:10 | -35.02212 | 138.76189 | 8829 ft | 289 kts | 250° |
| 2026-04-25 06:11 | -35.03032 | 138.73987 | 8474 ft | 287 kts | 249° |
| 2026-04-25 06:11 | -35.03860 | 138.71768 | 8105 ft | 285 kts | 249° |
| 2026-04-25 06:11 | -35.04678 | 138.69580 | 7748 ft | 283 kts | 249° |
| 2026-04-25 06:11 | -35.05496 | 138.67394 | 7395 ft | 281 kts | 249° |
| 2026-04-25 06:12 | -35.06299 | 138.65236 | 7049 ft | 280 kts | 249° |
| 2026-04-25 06:12 | -35.07104 | 138.63077 | 6683 ft | 279 kts | 249° |
| 2026-04-25 06:12 | -35.07909 | 138.60915 | 6317 ft | 278 kts | 249° |
| 2026-04-25 06:12 | -35.08698 | 138.58800 | 5975 ft | 275 kts | 249° |
| 2026-04-25 06:13 | -35.09485 | 138.56682 | 5630 ft | 274 kts | 249° |
| 2026-04-25 06:13 | -35.10273 | 138.54562 | 5260 ft | 273 kts | 249° |
| 2026-04-25 06:13 | -35.11057 | 138.52454 | 4922 ft | 270 kts | 249° |
| 2026-04-25 06:14 | -35.12575 | 138.48375 | 4555 ft | 253 kts | 249° |
| 2026-04-25 06:14 | -35.13207 | 138.46448 | 4484 ft | 240 kts | 258° |
| 2026-04-25 06:14 | -35.13350 | 138.44514 | 4409 ft | 222 kts | 283° |
| 2026-04-25 06:14 | -35.12759 | 138.42837 | 4223 ft | 212 kts | 307° |
| 2026-04-25 06:15 | -35.11758 | 138.41516 | 3971 ft | 210 kts | 320° |
| 2026-04-25 06:15 | -35.10607 | 138.40448 | 3724 ft | 206 kts | 324° |
| 2026-04-25 06:15 | -35.09444 | 138.39462 | 3554 ft | 199 kts | 325° |
| 2026-04-25 06:15 | -35.08259 | 138.38693 | 3416 ft | 191 kts | 347° |
| 2026-04-25 06:16 | -35.06955 | 138.38843 | 3247 ft | 190 kts | 14° |
| 2026-04-25 06:16 | -35.05736 | 138.39479 | 2999 ft | 192 kts | 22° |
| 2026-04-25 06:16 | -35.04576 | 138.40279 | 2711 ft | 194 kts | 28° |
| 2026-04-25 06:16 | -35.03478 | 138.41273 | 2505 ft | 189 kts | 35° |
| 2026-04-25 06:17 | -35.02561 | 138.42319 | 2352 ft | 173 kts | 39° |
| 2026-04-25 06:17 | -35.01787 | 138.43356 | 2153 ft | 163 kts | 43° |
| 2026-04-25 06:17 | -35.01128 | 138.44415 | 2054 ft | 152 kts | 49° |
| 2026-04-25 06:17 | -35.00547 | 138.45517 | 1985 ft | 154 kts | 50° |
| 2026-04-25 06:18 | -34.99851 | 138.46483 | 1603 ft | 155 kts | 35° |
| 2026-04-25 06:18 | -34.99041 | 138.47305 | 1253 ft | 148 kts | 34° |
| 2026-04-25 06:18 | -34.98302 | 138.48175 | 866 ft | 149 kts | 44° |
| 2026-04-25 06:18 | -34.97675 | 138.49159 | 535 ft | 144 kts | 46° |
| 2026-04-25 06:19 | -34.97034 | 138.50082 | 376 ft | 142 kts | 44° |
| 2026-04-25 06:19 | -34.96379 | 138.50970 | 240 ft | 143 kts | 43° |
| 2026-04-25 06:19 | -34.95732 | 138.51898 | 70 ft | 142 kts | 45° |
| 2026-04-25 06:19 | -34.95101 | 138.52795 | 37 ft | 129 kts | 47° |
| 2026-04-25 06:20 | -34.94678 | 138.53422 | 37 ft | 57 kts | 51° |
| 2026-04-25 06:20 | -34.94481 | 138.53708 | 37 ft | 39 kts | 49° |
| 2026-04-25 06:20 | -34.94321 | 138.53940 | 38 ft | 31 kts | 51° |
| 2026-04-25 06:20 | -34.94190 | 138.54131 | 41 ft | 28 kts | 51° |
| 2026-04-25 06:21 | -34.94108 | 138.54254 | 43 ft | 13 kts | 45° |
| 2026-04-25 06:21 | -34.94024 | 138.54263 | 42 ft | 12 kts | 331° |
| 2026-04-25 06:21 | -34.93957 | 138.54199 | 42 ft | 11 kts | 320° |
| 2026-04-25 06:21 | -34.93905 | 138.54146 | 44 ft | 7 kts | 317° |
| 2026-04-25 06:22 | -34.93887 | 138.54100 | 45 ft | 4 kts | 272° |
| 2026-04-25 06:22 | -34.93899 | 138.54060 | 45 ft | 6 kts | 233° |
| 2026-04-25 06:22 | -34.93930 | 138.54010 | 44 ft | 7 kts | 230° |
| 2026-04-25 06:22 | -34.93926 | 138.53964 | 44 ft | 5 kts | 328° |
| 2026-04-25 06:23 | -34.93898 | 138.53937 | 44 ft | 4 kts | 321° |
| 2026-04-25 06:23 | -34.93877 | 138.53917 | 45 ft | 0 kts | 320° |